createdAt,value
2018-11-05T00:01:26.238Z,9.80
2018-11-05T00:03:54.685Z,9.80
2018-11-05T00:06:23.416Z,9.80
2018-11-05T00:08:51.848Z,9.80
2018-11-05T00:11:20.295Z,9.80
2018-11-05T00:13:49.699Z,9.80
2018-11-05T00:16:18.108Z,9.80
2018-11-05T00:18:46.565Z,9.80
2018-11-05T00:21:15.305Z,9.80
2018-11-05T00:23:43.720Z,9.80
2018-11-05T00:26:12.185Z,9.70
2018-11-05T00:28:40.882Z,9.80
2018-11-05T00:31:09.320Z,9.80
2018-11-05T00:33:37.747Z,9.80
2018-11-05T00:36:06.565Z,9.80
2018-11-05T00:38:35.056Z,9.80
2018-11-05T00:41:03.492Z,9.80
2018-11-05T00:43:31.986Z,9.80
2018-11-05T00:46:00.413Z,9.80
2018-11-05T00:48:28.897Z,9.80
2018-11-05T00:50:57.373Z,9.80
2018-11-05T00:53:25.784Z,9.80
2018-11-05T00:55:54.254Z,9.80
2018-11-05T00:58:22.995Z,9.80
2018-11-05T01:00:51.439Z,9.80
2018-11-05T01:03:20.509Z,9.80
2018-11-05T01:05:49.306Z,9.80
2018-11-05T01:08:17.805Z,9.80
2018-11-05T01:10:46.248Z,9.80
2018-11-05T01:13:14.742Z,9.80
2018-11-05T01:15:43.156Z,9.80
2018-11-05T01:18:11.621Z,9.80
2018-11-05T01:20:40.273Z,9.80
2018-11-05T01:23:08.703Z,9.80
2018-11-05T01:25:37.136Z,9.90
2018-11-05T01:28:05.984Z,9.90
2018-11-05T01:30:34.365Z,9.90
2018-11-05T01:33:02.807Z,9.90
2018-11-05T01:35:31.406Z,9.80
2018-11-05T01:37:59.857Z,9.90
2018-11-05T01:40:28.278Z,9.90
2018-11-05T01:42:56.766Z,9.90
2018-11-05T01:45:25.217Z,9.90
2018-11-05T01:47:53.649Z,9.90
2018-11-05T01:50:22.322Z,9.90
2018-11-05T01:52:50.813Z,9.90
2018-11-05T01:55:19.263Z,9.90
2018-11-05T01:57:48.069Z,9.90
2018-11-05T02:00:17.430Z,9.90
2018-11-05T02:02:46.790Z,9.90
2018-11-05T02:05:15.429Z,9.90
2018-11-05T02:07:45.022Z,9.90
2018-11-05T02:10:15.476Z,9.90
2018-11-05T02:12:44.081Z,9.90
2018-11-05T02:15:12.849Z,9.90
2018-11-05T02:17:42.992Z,9.90
2018-11-05T02:20:11.994Z,9.90
2018-11-05T02:22:40.492Z,9.90
2018-11-05T02:25:10.273Z,9.90
2018-11-05T02:27:38.773Z,9.90
2018-11-05T02:30:10.177Z,9.90
2018-11-05T02:32:38.634Z,9.90
2018-11-05T02:35:08.170Z,9.90
2018-11-05T02:37:37.027Z,9.90
2018-11-05T02:40:07.983Z,9.90
2018-11-05T02:42:36.749Z,9.90
2018-11-05T02:45:05.992Z,9.90
2018-11-05T02:47:34.497Z,9.90
2018-11-05T02:50:03.005Z,9.90
2018-11-05T02:52:31.459Z,9.90
2018-11-05T02:54:59.874Z,9.90
2018-11-05T02:57:28.685Z,9.90
2018-11-05T02:59:57.143Z,9.90
2018-11-05T03:02:25.765Z,9.90
2018-11-05T03:04:54.378Z,9.90
2018-11-05T03:07:22.845Z,9.90
2018-11-05T03:09:51.267Z,9.90
2018-11-05T03:12:19.974Z,9.90
2018-11-05T03:14:48.406Z,9.90
2018-11-05T03:17:16.913Z,9.90
2018-11-05T03:19:45.608Z,9.90
2018-11-05T03:22:14.165Z,9.90
2018-11-05T03:24:42.665Z,9.90
2018-11-05T03:27:11.190Z,9.90
2018-11-05T03:29:39.637Z,9.90
2018-11-05T03:32:08.125Z,9.90
2018-11-05T03:34:46.980Z,9.90
2018-11-05T03:37:15.410Z,9.90
2018-11-05T03:39:43.849Z,9.90
2018-11-05T03:42:12.674Z,9.90
2018-11-05T03:44:41.092Z,9.90
2018-11-05T03:47:09.564Z,9.90
2018-11-05T03:49:38.265Z,9.90
2018-11-05T03:52:06.720Z,9.90
2018-11-05T03:54:35.166Z,9.90
2018-11-05T03:57:03.650Z,9.90
2018-11-05T03:59:33.105Z,9.90
2018-11-05T04:02:01.610Z,9.90
2018-11-05T04:04:30.058Z,9.90
2018-11-05T04:06:58.481Z,9.90
2018-11-05T04:09:26.887Z,9.90
2018-11-05T04:11:55.604Z,9.90
2018-11-05T04:14:24.032Z,9.90
2018-11-05T04:16:52.461Z,9.90
2018-11-05T04:19:21.097Z,9.90
2018-11-05T04:21:49.534Z,9.90
2018-11-05T04:24:18.000Z,9.90
2018-11-05T04:26:47.005Z,9.90
2018-11-05T04:29:15.432Z,9.90
2018-11-05T04:31:43.837Z,9.90
2018-11-05T04:34:12.745Z,9.90
2018-11-05T04:36:41.274Z,9.90
2018-11-05T04:39:12.204Z,9.80
2018-11-05T04:41:40.842Z,9.90
2018-11-05T04:44:09.554Z,9.90
2018-11-05T04:46:38.601Z,9.90
2018-11-05T04:49:07.325Z,9.90
2018-11-05T04:51:35.737Z,9.90
2018-11-05T04:54:04.612Z,9.80
2018-11-05T04:56:33.101Z,9.80
2018-11-05T04:59:01.533Z,9.80
2018-11-05T05:01:30.023Z,9.80
2018-11-05T05:04:02.276Z,9.80
2018-11-05T05:06:30.764Z,9.90
2018-11-05T05:08:59.846Z,9.80
2018-11-05T05:11:28.280Z,9.80
2018-11-05T05:13:56.773Z,9.90
2018-11-05T05:16:25.454Z,9.90
2018-11-05T05:18:53.692Z,9.90
2018-11-05T05:21:22.314Z,9.90
2018-11-05T05:23:50.753Z,9.90
2018-11-05T05:26:19.185Z,9.90
2018-11-05T05:28:47.656Z,9.90
2018-11-05T05:31:16.093Z,9.90
2018-11-05T05:33:44.635Z,9.90
2018-11-05T05:36:13.093Z,9.90
2018-11-05T05:38:41.553Z,9.90
2018-11-05T05:41:10.086Z,9.90
2018-11-05T05:43:38.533Z,9.90
2018-11-05T05:46:06.965Z,9.90
2018-11-05T05:48:35.416Z,9.90
2018-11-05T05:51:04.322Z,9.90
2018-11-05T05:53:32.772Z,9.90
2018-11-05T05:56:02.529Z,9.90
2018-11-05T05:58:30.994Z,9.90
2018-11-05T06:00:59.424Z,9.90
2018-11-05T06:03:27.853Z,10.00
2018-11-05T06:05:56.606Z,10.00
2018-11-05T06:08:25.066Z,10.00
2018-11-05T06:10:53.680Z,10.00
2018-11-05T06:13:22.385Z,10.00
2018-11-05T06:15:50.881Z,10.00
2018-11-05T06:18:19.279Z,10.00
2018-11-05T06:20:48.017Z,10.00
2018-11-05T06:23:16.468Z,10.00
2018-11-05T06:25:44.937Z,10.00
2018-11-05T06:28:13.548Z,10.00
2018-11-05T06:30:42.016Z,10.00
2018-11-05T06:33:10.447Z,10.00
2018-11-05T06:35:39.173Z,10.00
2018-11-05T06:38:07.634Z,10.00
2018-11-05T06:40:36.093Z,10.00
2018-11-05T06:43:04.969Z,10.10
2018-11-05T06:45:33.543Z,10.10
2018-11-05T06:48:01.932Z,10.10
2018-11-05T06:50:30.394Z,10.10
2018-11-05T06:52:58.915Z,10.10
2018-11-05T06:55:27.317Z,10.10
2018-11-05T06:57:56.006Z,10.10
2018-11-05T07:00:25.459Z,10.20
2018-11-05T07:02:53.936Z,10.20
2018-11-05T07:05:22.589Z,10.20
2018-11-05T07:07:50.998Z,10.20
2018-11-05T07:10:19.814Z,10.20
2018-11-05T07:12:48.281Z,10.20
2018-11-05T07:15:17.797Z,10.20
2018-11-05T07:17:47.063Z,10.20
2018-11-05T07:20:16.735Z,10.30
2018-11-05T07:22:45.881Z,10.30
2018-11-05T07:25:14.997Z,10.30
2018-11-05T07:27:43.801Z,10.30
2018-11-05T07:30:14.645Z,10.40
2018-11-05T07:32:43.162Z,10.40
2018-11-05T07:35:12.934Z,10.40
2018-11-05T07:37:41.836Z,10.40
2018-11-05T07:40:11.825Z,10.40
2018-11-05T07:42:40.566Z,10.40
2018-11-05T07:45:12.455Z,10.50
2018-11-05T07:47:41.104Z,10.50
2018-11-05T07:50:11.249Z,10.50
2018-11-05T07:52:39.912Z,10.50
2018-11-05T07:55:09.890Z,10.50
2018-11-05T07:57:39.045Z,10.50
2018-11-05T08:00:14.960Z,10.60
2018-11-05T08:02:43.873Z,10.60
2018-11-05T08:05:12.644Z,10.60
2018-11-05T08:07:41.118Z,10.60
2018-11-05T08:10:09.989Z,10.60
2018-11-05T08:12:38.956Z,10.60
2018-11-05T08:15:08.830Z,10.70
2018-11-05T08:17:37.312Z,10.70
2018-11-05T08:20:06.029Z,10.70
2018-11-05T08:22:34.463Z,10.70
2018-11-05T08:25:02.998Z,10.70
2018-11-05T08:27:32.456Z,10.80
2018-11-05T08:30:00.966Z,10.80
2018-11-05T08:32:29.469Z,10.80
2018-11-05T08:34:57.929Z,10.80
2018-11-05T08:37:26.373Z,10.80
2018-11-05T08:39:55.088Z,10.90
2018-11-05T08:42:23.557Z,10.90
2018-11-05T08:44:52.033Z,10.90
2018-11-05T08:47:20.590Z,10.90
2018-11-05T08:49:49.016Z,10.90
2018-11-05T08:52:17.464Z,10.90
2018-11-05T08:54:45.949Z,10.90
2018-11-05T08:57:14.472Z,10.90
2018-11-05T08:59:43.001Z,10.90
2018-11-05T09:02:11.482Z,11.00
2018-11-05T09:04:40.020Z,11.00
2018-11-05T09:07:08.430Z,11.00
2018-11-05T09:09:37.385Z,11.00
2018-11-05T09:12:06.141Z,11.00
2018-11-05T09:14:34.523Z,11.10
2018-11-05T09:17:03.281Z,11.10
2018-11-05T09:19:31.721Z,11.10
2018-11-05T09:22:00.188Z,11.20
2018-11-05T09:24:28.752Z,11.20
2018-11-05T09:26:57.216Z,11.30
2018-11-05T09:29:25.829Z,11.30
2018-11-05T09:31:54.318Z,11.30
2018-11-05T09:34:24.452Z,11.30
2018-11-05T09:36:52.992Z,11.30
2018-11-05T09:39:21.577Z,11.30
2018-11-05T09:41:50.021Z,11.30
2018-11-05T09:44:18.478Z,11.30
2018-11-05T09:46:46.977Z,11.30
2018-11-05T09:49:15.380Z,11.30
2018-11-05T09:51:43.873Z,11.40
2018-11-05T09:54:12.540Z,11.40
2018-11-05T09:56:40.985Z,11.40
2018-11-05T09:59:09.421Z,11.40
2018-11-05T10:01:37.928Z,11.40
2018-11-05T10:04:06.496Z,11.40
2018-11-05T10:06:34.913Z,11.40
2018-11-05T10:09:04.129Z,11.40
2018-11-05T10:11:33.284Z,11.40
2018-11-05T10:14:01.705Z,11.40
2018-11-05T10:16:30.222Z,11.40
2018-11-05T10:18:58.669Z,11.50
2018-11-05T10:21:27.093Z,11.50
2018-11-05T10:23:55.613Z,11.50
2018-11-05T10:26:24.448Z,11.50
2018-11-05T10:28:52.965Z,11.60
2018-11-05T10:31:24.430Z,11.50
2018-11-05T10:33:53.012Z,11.60
2018-11-05T10:36:21.783Z,11.60
2018-11-05T10:38:50.349Z,11.50
2018-11-05T10:41:19.177Z,11.60
2018-11-05T10:43:47.845Z,11.60
2018-11-05T10:46:16.323Z,11.50
2018-11-05T10:48:44.790Z,11.50
2018-11-05T10:51:13.352Z,11.50
2018-11-05T10:53:41.902Z,11.50
2018-11-05T10:56:10.390Z,11.50
2018-11-05T10:58:38.828Z,11.50
2018-11-05T11:01:14.633Z,11.60
2018-11-05T11:03:47.361Z,11.60
2018-11-05T11:06:15.800Z,11.60
2018-11-05T11:08:44.289Z,11.50
2018-11-05T11:11:12.730Z,11.50
2018-11-05T11:13:41.181Z,11.50
2018-11-05T11:16:09.604Z,11.50
2018-11-05T11:18:38.025Z,11.50
2018-11-05T11:21:06.785Z,11.50
2018-11-05T11:23:35.357Z,11.50
2018-11-05T11:26:03.802Z,11.50
2018-11-05T11:28:32.673Z,11.50
2018-11-05T11:31:01.082Z,11.50
2018-11-05T11:33:29.537Z,11.50
2018-11-05T11:35:58.006Z,11.50
2018-11-05T11:38:26.523Z,11.40
2018-11-05T11:40:54.977Z,11.40
2018-11-05T11:43:23.462Z,11.40
2018-11-05T11:45:51.938Z,11.40
2018-11-05T11:48:20.404Z,11.40
2018-11-05T11:50:49.039Z,11.40
2018-11-05T11:53:17.556Z,11.40
2018-11-05T11:55:45.945Z,11.40
2018-11-05T11:58:14.563Z,11.40
2018-11-05T12:00:43.035Z,11.50
2018-11-05T12:03:11.527Z,11.50
2018-11-05T12:05:40.277Z,11.50
2018-11-05T12:08:08.713Z,11.50
2018-11-05T12:10:37.131Z,11.50
2018-11-05T12:13:06.014Z,11.50
2018-11-05T12:15:34.498Z,11.50
2018-11-05T12:18:02.939Z,11.50
2018-11-05T12:20:31.470Z,11.50
2018-11-05T12:22:59.929Z,11.50
2018-11-05T12:25:28.370Z,11.60
2018-11-05T12:27:57.109Z,11.50
2018-11-05T12:30:25.577Z,11.50
2018-11-05T12:32:54.707Z,11.60
2018-11-05T12:35:23.421Z,11.60
2018-11-05T12:37:52.814Z,11.60
2018-11-05T12:40:22.072Z,11.60
2018-11-05T12:42:51.158Z,11.60
2018-11-05T12:45:19.827Z,11.60
2018-11-05T12:47:48.264Z,11.60
2018-11-05T12:50:19.265Z,11.60
2018-11-05T12:52:48.493Z,11.50
2018-11-05T12:55:17.058Z,11.50
2018-11-05T12:57:45.942Z,11.50
2018-11-05T13:00:16.694Z,11.50
2018-11-05T13:02:49.441Z,11.50
2018-11-05T13:05:18.025Z,11.50
2018-11-05T13:07:47.377Z,11.50
2018-11-05T13:10:15.885Z,11.50
2018-11-05T13:12:44.331Z,11.60
2018-11-05T13:15:12.883Z,11.60
2018-11-05T13:17:41.732Z,11.60
2018-11-05T13:20:13.242Z,11.60
2018-11-05T13:22:42.058Z,11.60
2018-11-05T13:25:10.636Z,11.60
2018-11-05T13:27:39.267Z,11.60
2018-11-05T13:30:08.749Z,11.60
2018-11-05T13:32:37.470Z,11.60
2018-11-05T13:35:07.653Z,11.60
2018-11-05T13:37:37.490Z,11.60
2018-11-05T13:40:06.705Z,11.60
2018-11-05T13:42:35.112Z,11.60
2018-11-05T13:45:03.680Z,11.60
2018-11-05T13:47:32.674Z,11.60
2018-11-05T13:50:00.934Z,11.60
2018-11-05T13:52:29.391Z,11.70
2018-11-05T13:54:58.209Z,11.70
2018-11-05T13:57:26.365Z,11.60
2018-11-05T13:59:54.854Z,11.60
2018-11-05T14:02:23.277Z,11.60
2018-11-05T14:04:51.772Z,11.60
2018-11-05T14:07:20.269Z,11.60
2018-11-05T14:09:48.716Z,11.60
2018-11-05T14:12:17.121Z,11.60
2018-11-05T14:14:45.607Z,11.60
2018-11-05T14:17:14.054Z,11.60
2018-11-05T14:19:42.517Z,11.60
2018-11-05T14:22:11.001Z,11.60
2018-11-05T14:24:39.428Z,11.60
2018-11-05T14:27:08.121Z,11.60
2018-11-05T14:29:37.284Z,11.60
2018-11-05T14:32:05.605Z,11.50
2018-11-05T14:34:34.060Z,11.50
2018-11-05T14:37:02.673Z,11.50
2018-11-05T14:39:31.093Z,11.50
2018-11-05T14:41:59.557Z,11.50
2018-11-05T14:44:28.275Z,11.50
2018-11-05T14:46:56.709Z,11.50
2018-11-05T14:49:25.129Z,11.50
2018-11-05T14:51:53.740Z,11.50
2018-11-05T14:54:22.204Z,11.50
2018-11-05T14:56:50.757Z,11.50
2018-11-05T14:59:19.517Z,11.50
2018-11-05T15:01:48.033Z,11.40
2018-11-05T15:04:17.126Z,11.50
2018-11-05T15:06:45.920Z,11.50
2018-11-05T15:09:14.401Z,11.60
2018-11-05T15:11:42.948Z,11.70
2018-11-05T15:14:11.670Z,11.70
2018-11-05T15:16:40.349Z,11.70
2018-11-05T15:19:09.365Z,11.60
2018-11-05T15:21:37.775Z,11.60
2018-11-05T15:24:06.569Z,11.50
2018-11-05T15:26:35.129Z,11.60
2018-11-05T15:29:06.988Z,11.50
2018-11-05T15:31:35.562Z,11.50
2018-11-05T15:34:12.461Z,11.50
2018-11-05T15:36:43.845Z,11.50
2018-11-05T15:39:18.299Z,11.50
2018-11-05T15:41:46.824Z,11.50
2018-11-05T15:44:15.278Z,11.50
2018-11-05T15:46:43.953Z,11.50
2018-11-05T15:49:15.553Z,11.50
2018-11-05T15:51:48.526Z,11.50
2018-11-05T15:54:17.277Z,11.50
2018-11-05T15:56:49.649Z,11.50
2018-11-05T15:59:24.989Z,11.50
2018-11-05T16:01:58.846Z,11.50
2018-11-05T16:04:34.062Z,11.50
2018-11-05T16:07:03.848Z,11.50
2018-11-05T16:09:32.664Z,11.50
2018-11-05T16:12:01.107Z,11.50
2018-11-05T16:14:29.731Z,11.50
2018-11-05T16:16:58.166Z,11.50
2018-11-05T16:19:26.713Z,11.50
2018-11-05T16:21:55.702Z,11.40
2018-11-05T16:24:24.350Z,11.40
2018-11-05T16:26:52.926Z,11.50
2018-11-05T16:29:21.644Z,11.50
2018-11-05T16:31:50.185Z,11.40
2018-11-05T16:34:18.685Z,11.40
2018-11-05T16:36:47.408Z,11.40
2018-11-05T16:39:15.851Z,11.40
2018-11-05T16:41:44.383Z,11.40
2018-11-05T16:44:13.126Z,11.40
2018-11-05T16:46:41.744Z,11.40
2018-11-05T16:49:10.437Z,11.40
2018-11-05T16:51:39.184Z,11.40
2018-11-05T16:54:07.628Z,11.40
2018-11-05T16:56:36.526Z,11.40
2018-11-05T16:59:05.840Z,11.40
2018-11-05T17:01:34.731Z,11.40
2018-11-05T17:04:02.875Z,11.40
2018-11-05T17:06:31.540Z,11.40
2018-11-05T17:09:00.021Z,11.40
2018-11-05T17:11:28.503Z,11.40
2018-11-05T17:13:57.021Z,11.40
2018-11-05T17:16:25.491Z,11.40
2018-11-05T17:18:53.976Z,11.40
2018-11-05T17:21:22.974Z,11.40
2018-11-05T17:23:51.455Z,11.40
2018-11-05T17:26:20.119Z,11.50
2018-11-05T17:28:48.579Z,11.40
2018-11-05T17:31:17.025Z,11.40
2018-11-05T17:33:45.509Z,11.40
2018-11-05T17:36:14.076Z,11.50
2018-11-05T17:38:42.598Z,11.50
2018-11-05T17:41:12.001Z,11.50
2018-11-05T17:43:40.522Z,11.50
2018-11-05T17:46:09.017Z,11.50
2018-11-05T17:48:37.637Z,11.50
2018-11-05T17:51:06.837Z,11.50
2018-11-05T17:53:35.305Z,11.50
2018-11-05T17:56:03.846Z,11.50
2018-11-05T17:58:32.330Z,11.50
2018-11-05T18:01:00.772Z,11.50
2018-11-05T18:03:29.261Z,11.50
2018-11-05T18:05:57.783Z,11.50
2018-11-05T18:08:26.226Z,12.70
2018-11-05T18:10:54.685Z,11.50
2018-11-05T18:13:23.394Z,11.50
2018-11-05T18:15:51.857Z,11.50
2018-11-05T18:18:20.316Z,11.50
2018-11-05T18:20:48.912Z,11.50
2018-11-05T18:23:17.460Z,11.50
2018-11-05T18:25:45.921Z,11.50
2018-11-05T18:28:14.684Z,11.50
2018-11-05T18:30:43.177Z,11.50
2018-11-05T18:33:12.541Z,11.20
2018-11-05T18:35:41.244Z,11.40
2018-11-05T18:38:09.821Z,11.40
2018-11-05T18:40:38.214Z,11.40
2018-11-05T18:43:07.027Z,11.30
2018-11-05T18:45:36.178Z,11.30
2018-11-05T18:48:04.636Z,11.30
2018-11-05T18:50:33.177Z,11.30
2018-11-05T18:53:01.648Z,11.30
2018-11-05T18:55:30.189Z,11.30
2018-11-05T18:57:59.158Z,11.30
2018-11-05T19:00:28.179Z,11.20
2018-11-05T19:02:58.041Z,11.20
2018-11-05T19:05:28.084Z,11.20
2018-11-05T19:07:56.678Z,11.20
2018-11-05T19:10:25.287Z,11.20
2018-11-05T19:12:54.641Z,11.20
2018-11-05T19:15:23.153Z,11.10
2018-11-05T19:17:52.102Z,11.10
2018-11-05T19:20:20.869Z,11.10
2018-11-05T19:22:49.474Z,11.10
2018-11-05T19:25:18.239Z,11.10
2018-11-05T19:27:46.986Z,11.00
2018-11-05T19:30:18.960Z,11.00
2018-11-05T19:32:47.378Z,10.90
2018-11-05T19:35:16.117Z,10.90
2018-11-05T19:37:44.625Z,10.90
2018-11-05T19:40:14.880Z,10.80
2018-11-05T19:42:44.646Z,10.80
2018-11-05T19:45:16.101Z,10.80
2018-11-05T19:47:44.648Z,10.80
2018-11-05T19:50:15.693Z,10.80
2018-11-05T19:52:45.059Z,10.70
2018-11-05T19:55:15.272Z,10.70
2018-11-05T19:57:44.737Z,10.70
2018-11-05T20:00:18.319Z,10.70
2018-11-05T20:02:47.453Z,10.70
2018-11-05T20:05:16.233Z,10.70
2018-11-05T20:07:45.561Z,10.70
2018-11-05T20:10:14.502Z,10.70
2018-11-05T20:12:44.917Z,10.70
2018-11-05T20:15:14.066Z,10.60
2018-11-05T20:17:43.401Z,10.60
2018-11-05T20:20:13.545Z,10.60
2018-11-05T20:22:42.160Z,10.60
2018-11-05T20:25:10.931Z,10.60
2018-11-05T20:27:40.143Z,10.60
2018-11-05T20:30:10.714Z,10.60
2018-11-05T20:32:39.875Z,10.50
2018-11-05T20:35:08.340Z,10.50
2018-11-05T20:37:36.974Z,10.50
2018-11-05T20:40:06.971Z,10.50
2018-11-05T20:42:35.440Z,10.50
2018-11-05T20:45:03.981Z,10.50
2018-11-05T20:47:32.496Z,10.50
2018-11-05T20:50:01.089Z,10.50
2018-11-05T20:52:29.680Z,10.50
2018-11-05T20:54:58.500Z,10.40
2018-11-05T20:57:27.160Z,10.40
2018-11-05T20:59:55.637Z,10.40
2018-11-05T21:02:24.177Z,10.40
2018-11-05T21:04:52.651Z,10.40
2018-11-05T21:07:21.181Z,10.40
2018-11-05T21:09:49.895Z,10.30
2018-11-05T21:12:18.472Z,10.30
2018-11-05T21:14:46.933Z,10.30
2018-11-05T21:17:15.679Z,10.30
2018-11-05T21:19:44.958Z,10.30
2018-11-05T21:22:14.065Z,10.30
2018-11-05T21:24:42.519Z,10.30
2018-11-05T21:27:11.121Z,10.30
2018-11-05T21:29:39.478Z,10.30
2018-11-05T21:32:08.233Z,10.20
2018-11-05T21:34:36.710Z,10.20
2018-11-05T21:37:05.239Z,10.20
2018-11-05T21:39:33.968Z,10.20
2018-11-05T21:42:02.422Z,10.20
2018-11-05T21:44:30.867Z,10.10
2018-11-05T21:46:59.433Z,10.10
2018-11-05T21:49:27.963Z,10.10
2018-11-05T21:51:56.862Z,10.10
2018-11-05T21:54:25.383Z,10.10
2018-11-05T21:56:53.842Z,10.10
2018-11-05T21:59:22.265Z,10.10
2018-11-05T22:01:51.077Z,10.10
2018-11-05T22:04:19.545Z,10.00
2018-11-05T22:06:47.985Z,10.00
2018-11-05T22:09:16.805Z,10.00
2018-11-05T22:11:45.549Z,10.00
2018-11-05T22:14:14.030Z,9.90
2018-11-05T22:16:42.810Z,9.90
2018-11-05T22:19:11.276Z,9.90
2018-11-05T22:21:39.702Z,9.90
2018-11-05T22:24:08.297Z,9.80
2018-11-05T22:26:36.776Z,9.80
2018-11-05T22:29:05.276Z,9.80
2018-11-05T22:31:33.989Z,9.70
2018-11-05T22:34:02.444Z,9.70
2018-11-05T22:36:30.894Z,9.70
2018-11-05T22:38:59.668Z,9.70
2018-11-05T22:41:28.106Z,9.70
2018-11-05T22:43:56.633Z,9.70
2018-11-05T22:46:25.376Z,9.70
2018-11-05T22:48:53.896Z,9.70
2018-11-05T22:51:22.373Z,9.70
2018-11-05T22:53:50.921Z,9.70
2018-11-05T22:56:20.578Z,9.70
2018-11-05T22:58:49.042Z,9.70
2018-11-05T23:01:22.986Z,9.60
2018-11-05T23:03:51.462Z,9.60
2018-11-05T23:06:19.878Z,9.60
2018-11-05T23:08:48.587Z,9.60
2018-11-05T23:11:17.755Z,9.60
2018-11-05T23:13:46.201Z,10.70
2018-11-05T23:16:14.840Z,9.50
2018-11-05T23:18:43.333Z,9.50
2018-11-05T23:21:11.824Z,9.50
2018-11-05T23:23:40.297Z,9.50
2018-11-05T23:26:08.757Z,9.50
2018-11-05T23:28:37.180Z,9.50
2018-11-05T23:31:05.912Z,9.50
2018-11-05T23:33:34.494Z,9.40
2018-11-05T23:36:02.842Z,9.40
2018-11-05T23:38:31.449Z,9.40
2018-11-05T23:40:59.927Z,9.40
2018-11-05T23:43:28.356Z,9.40
2018-11-05T23:45:57.069Z,9.30
2018-11-05T23:48:25.529Z,9.40
2018-11-05T23:50:53.961Z,9.30
2018-11-05T23:53:22.667Z,9.30
2018-11-05T23:55:51.145Z,9.30
2018-11-05T23:58:19.564Z,9.30
